Webcam Flughafen St.Gallen-Altenrhein

Live-Bilder und Zeitraffer LSZR / ACH.

 

Live aus Altenrhein
LIVE
LSZR 240250Z AUTO 29008KT 9999 OVC050 12/04 Q1025
Zeitraffer heute
2018-10-24 00:14:58
LSZR 232150Z AUTO 21003KT 9999 OVC060 11/06 Q1027
Zeitraffer gestern
2018-10-23 00:14:04
LSZR 222150Z AUTO 13003KT 9999 NSC 08/06 Q1030
Zeitraffer vor 3 Tagen
2018-10-21 00:14:12
LSZR 202150Z AUTO VRB01KT 2800 BR NCD 09/09 Q1028